createdAt,value
2023-01-29T00:01:57.656Z,74.83
2023-01-29T00:04:24.957Z,75.73
2023-01-29T00:06:52.034Z,75.81
2023-01-29T00:09:19.391Z,74.68
2023-01-29T00:11:47.151Z,74.31
2023-01-29T00:14:14.318Z,74.95
2023-01-29T00:16:41.231Z,75.25
2023-01-29T00:19:08.186Z,74.75
2023-01-29T00:21:35.274Z,74.10
2023-01-29T00:24:02.773Z,75.09
2023-01-29T00:26:29.807Z,73.23
2023-01-29T00:29:02.972Z,75.16
2023-01-29T00:31:30.022Z,74.89
2023-01-29T00:33:58.368Z,75.77
2023-01-29T00:36:26.493Z,75.50
2023-01-29T00:39:02.802Z,74.38
2023-01-29T00:41:50.367Z,74.86
2023-01-29T00:44:36.375Z,75.95
2023-01-29T00:47:05.028Z,76.16
2023-01-29T00:49:32.025Z,77.25
2023-01-29T00:52:17.482Z,77.36
2023-01-29T00:54:44.519Z,77.16
2023-01-29T00:57:11.432Z,77.65
2023-01-29T00:59:38.325Z,78.09
2023-01-29T01:02:23.696Z,77.73
2023-01-29T01:04:50.701Z,77.21
2023-01-29T01:07:17.807Z,77.25
2023-01-29T01:10:03.281Z,76.89
2023-01-29T01:12:31.268Z,77.54
2023-01-29T01:14:58.440Z,77.79
2023-01-29T01:17:25.553Z,78.31
2023-01-29T01:19:52.629Z,79.12
2023-01-29T01:22:19.646Z,78.96
2023-01-29T01:24:46.839Z,78.77
2023-01-29T01:27:13.949Z,78.88
2023-01-29T01:29:41.155Z,78.93
2023-01-29T01:32:08.241Z,77.26
2023-01-29T01:34:35.905Z,75.70
2023-01-29T01:37:02.867Z,76.56
2023-01-29T01:39:30.187Z,75.75
2023-01-29T01:41:57.333Z,73.11
2023-01-29T01:44:52.285Z,73.55
2023-01-29T01:47:46.721Z,75.14
2023-01-29T01:50:37.803Z,72.70
2023-01-29T01:53:11.562Z,73.39
2023-01-29T01:55:45.198Z,72.42
2023-01-29T01:58:38.131Z,72.73
2023-01-29T02:01:08.397Z,74.35
2023-01-29T02:04:01.679Z,74.29
2023-01-29T02:06:52.003Z,73.15
2023-01-29T02:09:38.951Z,74.65
2023-01-29T02:12:09.375Z,76.08
2023-01-29T02:14:39.705Z,77.24
2023-01-29T02:17:09.905Z,77.41
2023-01-29T02:19:57.690Z,75.30
2023-01-29T02:22:56.901Z,74.72
2023-01-29T02:25:45.078Z,75.04
2023-01-29T02:28:23.935Z,72.44
2023-01-29T02:31:13.034Z,72.72
2023-01-29T02:34:01.766Z,72.68
2023-01-29T02:36:31.951Z,73.76
2023-01-29T02:39:13.353Z,75.31
2023-01-29T02:41:55.055Z,76.50
2023-01-29T02:44:51.213Z,76.16
2023-01-29T02:47:50.473Z,76.50
2023-01-29T02:50:35.720Z,77.02
2023-01-29T02:53:07.084Z,77.85
2023-01-29T02:55:55.775Z,77.38
2023-01-29T02:58:34.982Z,75.86
2023-01-29T03:01:13.655Z,75.66
2023-01-29T03:03:44.812Z,76.61
2023-01-29T03:06:28.451Z,76.95
2023-01-29T03:09:05.418Z,76.83
2023-01-29T03:11:44.650Z,76.62
2023-01-29T03:14:55.144Z,76.13
2023-01-29T03:17:27.257Z,76.19
2023-01-29T03:19:54.603Z,73.42
2023-01-29T03:22:23.942Z,74.14
2023-01-29T03:25:18.537Z,73.43
2023-01-29T03:28:14.283Z,73.31
2023-01-29T03:31:10.239Z,73.66
2023-01-29T03:33:50.116Z,74.12
2023-01-29T03:36:46.036Z,74.83
2023-01-29T03:39:15.691Z,75.31
2023-01-29T03:41:56.676Z,75.78
2023-01-29T03:44:33.876Z,74.32
2023-01-29T03:47:30.627Z,74.19
2023-01-29T03:50:30.567Z,74.95
2023-01-29T03:53:07.165Z,75.94
2023-01-29T03:55:56.039Z,75.59
2023-01-29T03:58:38.595Z,74.40
2023-01-29T04:01:12.840Z,75.22
2023-01-29T04:03:54.906Z,74.74
2023-01-29T04:06:30.213Z,75.40
2023-01-29T04:09:22.707Z,76.39
2023-01-29T04:11:58.633Z,77.08
2023-01-29T04:14:25.843Z,77.95
2023-01-29T04:16:58.104Z,78.55
2023-01-29T04:19:34.173Z,79.11
2023-01-29T04:22:17.598Z,79.17
2023-01-29T04:24:45.062Z,79.34
2023-01-29T04:27:33.663Z,79.20
2023-01-29T04:30:26.544Z,79.15
2023-01-29T04:32:53.924Z,79.24
2023-01-29T04:36:00.204Z,78.95
2023-01-29T04:38:43.519Z,78.76
2023-01-29T04:41:34.177Z,78.84
2023-01-29T04:44:32.988Z,78.85
2023-01-29T04:47:00.159Z,79.02
2023-01-29T04:49:36.184Z,79.49
2023-01-29T04:52:15.044Z,78.96
2023-01-29T04:55:00.340Z,79.46
2023-01-29T04:57:40.426Z,79.34
2023-01-29T05:00:13.853Z,78.35
2023-01-29T05:02:43.243Z,78.23
2023-01-29T05:05:12.775Z,77.34
2023-01-29T05:07:43.645Z,77.29
2023-01-29T05:10:12.101Z,76.95
2023-01-29T05:12:40.945Z,73.27
2023-01-29T05:15:17.308Z,72.58
2023-01-29T05:17:44.446Z,72.85
2023-01-29T05:20:12.480Z,71.08
2023-01-29T05:22:41.880Z,72.27
2023-01-29T05:25:23.401Z,73.01
2023-01-29T05:28:08.511Z,72.04
2023-01-29T05:30:38.128Z,72.62
2023-01-29T05:33:11.632Z,71.93
2023-01-29T05:35:38.744Z,72.99
2023-01-29T05:38:05.748Z,72.44
2023-01-29T05:40:33.070Z,73.38
2023-01-29T05:43:00.114Z,74.07
2023-01-29T05:45:27.171Z,72.20
2023-01-29T05:47:58.553Z,73.28
2023-01-29T05:50:26.890Z,73.64
2023-01-29T05:53:00.850Z,72.46
2023-01-29T05:55:32.247Z,73.28
2023-01-29T05:57:59.268Z,73.77
2023-01-29T06:00:26.519Z,75.18
2023-01-29T06:02:53.738Z,75.92
2023-01-29T06:05:20.869Z,71.89
2023-01-29T06:07:47.978Z,73.34
2023-01-29T06:10:18.459Z,74.89
2023-01-29T06:12:46.153Z,75.37
2023-01-29T06:15:15.824Z,74.10
2023-01-29T06:17:43.277Z,74.45
2023-01-29T06:20:10.880Z,71.79
2023-01-29T06:22:37.990Z,70.83
2023-01-29T06:25:05.550Z,71.97
2023-01-29T06:27:32.451Z,73.58
2023-01-29T06:29:59.406Z,72.85
2023-01-29T06:32:29.295Z,74.16
2023-01-29T06:34:56.312Z,73.87
2023-01-29T06:37:23.364Z,73.54
2023-01-29T06:39:50.580Z,72.15
2023-01-29T06:42:17.659Z,71.35
2023-01-29T06:44:45.048Z,71.72
2023-01-29T06:47:12.102Z,72.99
2023-01-29T06:49:38.989Z,73.02
2023-01-29T06:52:06.050Z,73.36
2023-01-29T06:54:33.083Z,73.52
2023-01-29T06:57:00.117Z,74.25
2023-01-29T06:59:27.257Z,74.52
2023-01-29T07:01:54.243Z,72.63
2023-01-29T07:04:21.411Z,72.37
2023-01-29T07:06:48.399Z,72.99
2023-01-29T07:09:15.387Z,72.79
2023-01-29T07:11:42.443Z,69.57
2023-01-29T07:14:09.481Z,69.44
2023-01-29T07:16:36.427Z,70.43
2023-01-29T07:19:03.413Z,70.97
2023-01-29T07:21:30.520Z,70.52
2023-01-29T07:23:57.603Z,73.21
2023-01-29T07:26:24.538Z,73.33
2023-01-29T07:28:51.595Z,74.56
2023-01-29T07:31:18.730Z,72.04
2023-01-29T07:33:46.389Z,72.71
2023-01-29T07:36:14.210Z,74.26
2023-01-29T07:38:41.439Z,74.52
2023-01-29T07:41:09.978Z,74.71
2023-01-29T07:43:37.014Z,73.27
2023-01-29T07:46:05.503Z,70.96
2023-01-29T07:48:32.551Z,71.12
2023-01-29T07:50:59.654Z,69.42
2023-01-29T07:53:28.088Z,71.90
2023-01-29T07:55:55.701Z,73.34
2023-01-29T07:58:22.866Z,73.05
2023-01-29T08:00:50.193Z,73.76
2023-01-29T08:03:20.243Z,74.08
2023-01-29T08:05:47.301Z,74.34
2023-01-29T08:08:14.792Z,74.93
2023-01-29T08:10:42.423Z,74.52
2023-01-29T08:13:10.243Z,74.53
2023-01-29T08:15:39.193Z,69.93
2023-01-29T08:18:06.570Z,72.22
2023-01-29T08:20:33.642Z,74.32
2023-01-29T08:23:06.292Z,75.26
2023-01-29T08:25:34.293Z,75.73
2023-01-29T08:28:01.468Z,75.48
2023-01-29T08:30:31.314Z,75.60
2023-01-29T08:32:58.956Z,75.20
2023-01-29T08:35:26.690Z,74.45
2023-01-29T08:37:59.532Z,74.01
2023-01-29T08:40:28.170Z,73.12
2023-01-29T08:43:03.523Z,71.46
2023-01-29T08:45:34.561Z,73.34
2023-01-29T08:48:01.714Z,74.10
2023-01-29T08:50:30.875Z,74.03
2023-01-29T08:52:59.411Z,73.85
2023-01-29T08:55:27.237Z,72.85
2023-01-29T08:57:54.577Z,68.98
2023-01-29T09:00:21.976Z,70.28
2023-01-29T09:02:49.048Z,69.36
2023-01-29T09:05:16.567Z,70.17
2023-01-29T09:07:44.152Z,71.47
2023-01-29T09:10:12.657Z,69.25
2023-01-29T09:12:39.614Z,70.23
2023-01-29T09:15:07.075Z,67.72
2023-01-29T09:17:34.129Z,68.80
2023-01-29T09:20:01.117Z,70.46
2023-01-29T09:22:28.667Z,72.08
2023-01-29T09:24:56.054Z,72.48
2023-01-29T09:27:23.884Z,72.49
2023-01-29T09:29:50.838Z,71.94
2023-01-29T09:32:37.712Z,71.32
2023-01-29T09:35:05.536Z,68.80
2023-01-29T09:37:32.543Z,71.27
2023-01-29T09:39:59.505Z,69.93
2023-01-29T09:42:50.933Z,70.05
2023-01-29T09:45:30.595Z,69.13
2023-01-29T09:48:01.682Z,69.95
2023-01-29T09:50:51.760Z,68.67
2023-01-29T09:53:21.809Z,70.07
2023-01-29T09:55:51.604Z,71.65
2023-01-29T09:58:32.191Z,71.59
2023-01-29T10:01:27.292Z,70.52
2023-01-29T10:03:57.165Z,70.90
2023-01-29T10:06:24.151Z,71.94
2023-01-29T10:08:57.002Z,71.78
2023-01-29T10:11:39.554Z,72.29
2023-01-29T10:14:17.713Z,71.83
2023-01-29T10:16:50.193Z,72.95
2023-01-29T10:19:43.653Z,73.53
2023-01-29T10:22:46.223Z,73.31
2023-01-29T10:25:21.058Z,71.98
2023-01-29T10:27:52.530Z,72.87
2023-01-29T10:30:31.842Z,72.11
2023-01-29T10:33:03.130Z,74.31
2023-01-29T10:35:41.491Z,73.50
2023-01-29T10:38:23.446Z,74.83
2023-01-29T10:41:02.932Z,74.38
2023-01-29T10:43:37.810Z,74.27
2023-01-29T10:46:16.900Z,75.33
2023-01-29T10:49:08.334Z,75.06
2023-01-29T10:51:44.673Z,75.85
2023-01-29T10:54:53.038Z,76.86
2023-01-29T10:57:28.870Z,75.95
2023-01-29T11:00:10.717Z,75.80
2023-01-29T11:02:41.875Z,75.56
2023-01-29T11:05:39.342Z,75.53
2023-01-29T11:08:15.126Z,76.24
2023-01-29T11:10:53.712Z,76.00
2023-01-29T11:13:23.236Z,76.48
2023-01-29T11:15:52.888Z,74.53
2023-01-29T11:18:19.966Z,75.02
2023-01-29T11:20:59.392Z,75.93
2023-01-29T11:23:28.906Z,74.86
2023-01-29T11:25:57.935Z,75.48
2023-01-29T11:28:37.916Z,75.96
2023-01-29T11:31:26.317Z,75.27
2023-01-29T11:34:05.121Z,74.84
2023-01-29T11:36:38.359Z,75.03
2023-01-29T11:39:21.655Z,75.24
2023-01-29T11:42:01.536Z,74.09
2023-01-29T11:44:33.376Z,75.46
2023-01-29T11:47:21.376Z,75.12
2023-01-29T11:49:49.817Z,75.86
2023-01-29T11:52:21.120Z,76.16
2023-01-29T11:55:04.807Z,75.85
2023-01-29T11:57:35.939Z,75.80
2023-01-29T12:00:07.388Z,76.05
2023-01-29T12:02:42.538Z,75.55
2023-01-29T12:05:22.575Z,75.37
2023-01-29T12:07:56.234Z,72.90
2023-01-29T12:10:29.468Z,73.60
2023-01-29T12:13:12.144Z,74.60
2023-01-29T12:15:40.585Z,74.17
2023-01-29T12:18:32.239Z,74.25
2023-01-29T12:21:05.170Z,74.94
2023-01-29T12:23:53.510Z,74.84
2023-01-29T12:26:38.540Z,74.44
2023-01-29T12:29:05.340Z,75.35
2023-01-29T12:31:55.056Z,75.22
2023-01-29T12:34:39.445Z,76.00
2023-01-29T12:37:31.046Z,74.49
2023-01-29T12:39:58.144Z,75.00
2023-01-29T12:42:28.162Z,73.55
2023-01-29T12:45:00.025Z,73.76
2023-01-29T12:47:43.070Z,73.20
2023-01-29T12:50:33.247Z,72.38
2023-01-29T12:53:26.433Z,73.94
2023-01-29T12:55:59.427Z,74.08
2023-01-29T12:58:38.302Z,73.24
2023-01-29T13:01:41.007Z,73.46
2023-01-29T13:04:21.566Z,71.32
2023-01-29T13:06:54.315Z,72.08
2023-01-29T13:09:26.949Z,72.67
2023-01-29T13:11:58.529Z,72.37
2023-01-29T13:14:50.501Z,71.84
2023-01-29T13:17:24.876Z,72.18
2023-01-29T13:19:55.109Z,71.07
2023-01-29T13:22:26.365Z,69.28
2023-01-29T13:25:03.993Z,70.55
2023-01-29T13:27:34.535Z,70.79
2023-01-29T13:30:01.949Z,70.58
2023-01-29T13:32:35.625Z,71.06
2023-01-29T13:35:15.088Z,71.91
2023-01-29T13:37:52.445Z,71.18
2023-01-29T13:40:26.021Z,70.34
2023-01-29T13:42:54.473Z,71.11
2023-01-29T13:45:45.711Z,71.66
2023-01-29T13:48:28.139Z,70.67
2023-01-29T13:50:57.847Z,71.09
2023-01-29T13:53:28.097Z,69.38
2023-01-29T13:55:55.547Z,70.70
2023-01-29T13:58:31.712Z,69.35
2023-01-29T14:01:02.156Z,70.31
2023-01-29T14:03:35.915Z,71.59
2023-01-29T14:06:38.564Z,71.54
2023-01-29T14:09:31.229Z,71.68
2023-01-29T14:11:58.127Z,72.19
2023-01-29T14:14:51.565Z,71.03
2023-01-29T14:17:20.983Z,71.60
2023-01-29T14:19:54.030Z,72.28
2023-01-29T14:22:24.840Z,72.26
2023-01-29T14:24:57.364Z,71.96
2023-01-29T14:27:28.087Z,71.38
2023-01-29T14:30:09.974Z,70.91
2023-01-29T14:32:40.825Z,71.51
2023-01-29T14:35:28.413Z,72.65
2023-01-29T14:37:59.341Z,70.67
2023-01-29T14:40:29.819Z,71.39
2023-01-29T14:43:24.428Z,72.19
2023-01-29T14:45:51.856Z,72.30
2023-01-29T14:48:52.000Z,72.60
2023-01-29T14:51:20.855Z,72.86
2023-01-29T14:54:00.817Z,73.01
2023-01-29T14:56:33.005Z,72.68
2023-01-29T14:59:23.575Z,72.49
2023-01-29T15:01:56.327Z,71.31
2023-01-29T15:04:30.706Z,72.14
2023-01-29T15:07:15.082Z,72.37
2023-01-29T15:09:57.272Z,72.35
2023-01-29T15:12:36.431Z,72.14
2023-01-29T15:15:14.475Z,71.15
2023-01-29T15:18:35.695Z,71.21
2023-01-29T15:21:05.937Z,71.92
2023-01-29T15:23:38.800Z,72.15
2023-01-29T15:26:08.387Z,71.96
2023-01-29T15:28:36.177Z,71.54
2023-01-29T15:31:07.932Z,72.17
2023-01-29T15:33:38.753Z,72.62
2023-01-29T15:36:07.865Z,72.87
2023-01-29T15:38:35.852Z,73.85
2023-01-29T15:41:15.810Z,74.13
2023-01-29T15:43:45.667Z,74.39
2023-01-29T15:46:25.878Z,74.14
2023-01-29T15:48:55.445Z,75.34
2023-01-29T15:51:27.707Z,75.29
2023-01-29T15:53:58.659Z,74.92
2023-01-29T15:56:29.667Z,75.28
2023-01-29T15:59:01.024Z,75.40
2023-01-29T16:01:29.287Z,75.43
2023-01-29T16:04:02.532Z,75.74
2023-01-29T16:06:38.969Z,76.06
2023-01-29T16:09:07.528Z,75.74
2023-01-29T16:11:35.837Z,76.01
2023-01-29T16:14:03.967Z,75.98
2023-01-29T16:16:31.284Z,75.90
2023-01-29T16:19:00.702Z,75.90
2023-01-29T16:21:39.902Z,76.11
2023-01-29T16:24:11.956Z,76.65
2023-01-29T16:26:50.002Z,76.29
2023-01-29T16:29:22.429Z,76.63
2023-01-29T16:31:54.419Z,75.27
2023-01-29T16:34:32.812Z,74.50
2023-01-29T16:37:03.408Z,73.49
2023-01-29T16:39:38.451Z,71.17
2023-01-29T16:42:12.479Z,70.80
2023-01-29T16:45:07.535Z,71.32
2023-01-29T16:47:41.629Z,71.28
2023-01-29T16:50:35.992Z,71.06
2023-01-29T16:53:12.313Z,70.27
2023-01-29T16:55:42.490Z,69.24
2023-01-29T16:58:30.862Z,68.94
2023-01-29T17:01:09.676Z,69.33
2023-01-29T17:03:38.425Z,69.45
2023-01-29T17:06:13.168Z,70.16
2023-01-29T17:08:43.190Z,69.42
2023-01-29T17:11:12.533Z,69.54
2023-01-29T17:13:43.866Z,69.59
2023-01-29T17:16:16.208Z,69.11
2023-01-29T17:18:43.207Z,68.97
2023-01-29T17:21:10.336Z,69.23
2023-01-29T17:23:37.580Z,69.08
2023-01-29T17:26:12.405Z,69.40
2023-01-29T17:28:40.786Z,69.87
2023-01-29T17:31:08.859Z,70.04
2023-01-29T17:33:38.526Z,70.46
2023-01-29T17:36:06.019Z,68.90
2023-01-29T17:38:33.413Z,68.87
2023-01-29T17:41:06.444Z,69.40
2023-01-29T17:43:34.691Z,69.65
2023-01-29T17:46:01.914Z,71.61
2023-01-29T17:48:30.921Z,72.16
2023-01-29T17:51:02.145Z,72.35
2023-01-29T17:53:44.223Z,72.19
2023-01-29T17:56:16.305Z,72.26
2023-01-29T17:58:43.525Z,73.33
2023-01-29T18:01:10.698Z,71.67
2023-01-29T18:03:37.887Z,71.07
2023-01-29T18:06:09.683Z,71.61
2023-01-29T18:08:39.713Z,72.36
2023-01-29T18:11:07.280Z,73.82
2023-01-29T18:13:36.468Z,74.14
2023-01-29T18:16:03.978Z,74.73
2023-01-29T18:18:30.905Z,74.48
2023-01-29T18:20:57.877Z,74.49
2023-01-29T18:23:25.106Z,74.45
2023-01-29T18:25:52.947Z,70.79
2023-01-29T18:28:20.021Z,70.45
2023-01-29T18:30:47.824Z,70.88
2023-01-29T18:33:16.240Z,71.89
2023-01-29T18:35:50.275Z,72.50
2023-01-29T18:38:18.132Z,71.44
2023-01-29T18:40:45.066Z,72.41
2023-01-29T18:43:13.496Z,70.82
2023-01-29T18:45:40.689Z,71.48
2023-01-29T18:48:07.973Z,71.37
2023-01-29T18:50:36.304Z,71.52
2023-01-29T18:53:04.484Z,72.58
2023-01-29T18:55:31.527Z,72.94
2023-01-29T18:58:25.493Z,73.09
2023-01-29T19:00:48.001Z,74.66
2023-01-29T19:03:15.148Z,74.31
2023-01-29T19:05:42.347Z,73.26
2023-01-29T19:08:09.897Z,71.17
2023-01-29T19:10:37.179Z,71.66
2023-01-29T19:13:05.852Z,71.92
2023-01-29T19:15:34.049Z,72.85
2023-01-29T19:18:01.179Z,73.92
2023-01-29T19:20:28.359Z,73.28
2023-01-29T19:22:55.324Z,72.52
2023-01-29T19:25:23.752Z,72.06
2023-01-29T19:27:50.930Z,70.18
2023-01-29T19:30:19.379Z,70.86
2023-01-29T19:32:46.427Z,70.83
2023-01-29T19:35:13.477Z,70.44
2023-01-29T19:37:40.580Z,71.62
2023-01-29T19:40:08.718Z,70.23
2023-01-29T19:42:37.596Z,71.57
2023-01-29T19:45:05.729Z,72.82
2023-01-29T19:47:33.809Z,73.13
2023-01-29T19:50:01.877Z,72.21
2023-01-29T19:52:51.233Z,69.16
2023-01-29T19:55:20.847Z,71.15
2023-01-29T19:57:48.256Z,70.75
2023-01-29T20:00:17.622Z,71.33
2023-01-29T20:02:44.726Z,72.44
2023-01-29T20:05:13.177Z,72.93
2023-01-29T20:07:41.348Z,72.05
2023-01-29T20:10:11.584Z,71.35
2023-01-29T20:12:38.738Z,71.65
2023-01-29T20:15:07.466Z,69.51
2023-01-29T20:17:34.616Z,69.38
2023-01-29T20:20:01.633Z,68.12
2023-01-29T20:22:30.000Z,67.95
2023-01-29T20:24:57.551Z,68.21
2023-01-29T20:27:24.992Z,68.47
2023-01-29T20:29:52.790Z,69.47
2023-01-29T20:32:19.851Z,69.85
2023-01-29T20:34:52.160Z,70.40
2023-01-29T20:37:19.765Z,69.86
2023-01-29T20:39:47.532Z,68.92
2023-01-29T20:42:14.819Z,70.47
2023-01-29T20:44:42.276Z,70.92
2023-01-29T20:47:59.389Z,71.44
2023-01-29T20:50:26.318Z,71.04
2023-01-29T20:52:53.387Z,72.42
2023-01-29T20:55:20.429Z,72.34
2023-01-29T20:58:06.357Z,73.11
2023-01-29T21:01:26.526Z,72.95
2023-01-29T21:03:53.553Z,72.80
2023-01-29T21:06:20.908Z,72.89
2023-01-29T21:08:47.911Z,72.79
2023-01-29T21:11:14.839Z,72.04
2023-01-29T21:13:42.754Z,69.67
2023-01-29T21:16:11.474Z,69.24
2023-01-29T21:18:38.736Z,69.51
2023-01-29T21:21:05.935Z,71.57
2023-01-29T21:23:32.908Z,71.66
2023-01-29T21:26:04.662Z,71.84
2023-01-29T21:28:32.925Z,72.04
2023-01-29T21:31:10.950Z,70.29
2023-01-29T21:33:38.424Z,69.41
2023-01-29T21:36:06.600Z,69.38
2023-01-29T21:38:33.747Z,70.65
2023-01-29T21:41:05.377Z,70.39
2023-01-29T21:43:32.491Z,71.25
2023-01-29T21:46:03.993Z,69.75
2023-01-29T21:48:30.988Z,70.13
2023-01-29T21:51:23.870Z,69.35
2023-01-29T21:53:50.807Z,69.95
2023-01-29T21:56:19.827Z,70.38
2023-01-29T21:58:50.026Z,69.71
2023-01-29T22:01:37.585Z,69.73
2023-01-29T22:04:04.007Z,70.43
2023-01-29T22:06:30.959Z,70.67
2023-01-29T22:08:57.998Z,71.83
2023-01-29T22:11:24.987Z,72.69
2023-01-29T22:13:51.983Z,72.72
2023-01-29T22:16:19.037Z,72.10
2023-01-29T22:18:46.019Z,71.63
2023-01-29T22:21:12.962Z,72.80
2023-01-29T22:23:40.122Z,74.09
2023-01-29T22:26:09.494Z,74.73
2023-01-29T22:28:36.542Z,74.39
2023-01-29T22:31:05.304Z,74.43
2023-01-29T22:36:21.055Z,72.53
2023-01-29T22:38:48.129Z,71.17
2023-01-29T22:41:15.481Z,70.67
2023-01-29T22:43:44.127Z,70.91
2023-01-29T22:46:12.028Z,70.16
2023-01-29T22:48:39.097Z,70.08
2023-01-29T22:51:13.032Z,71.38
2023-01-29T22:53:43.328Z,72.60
2023-01-29T22:56:11.514Z,73.15
2023-01-29T22:58:38.939Z,73.77
2023-01-29T23:01:05.922Z,72.87
2023-01-29T23:03:33.493Z,72.88
2023-01-29T23:06:00.634Z,73.29
2023-01-29T23:08:27.946Z,73.51
2023-01-29T23:10:54.954Z,70.96
2023-01-29T23:13:21.795Z,68.98
2023-01-29T23:15:58.502Z,70.29
2023-01-29T23:18:25.459Z,69.76
2023-01-29T23:20:57.488Z,69.56
2023-01-29T23:23:24.525Z,71.06
2023-01-29T23:26:16.427Z,72.63
2023-01-29T23:28:43.898Z,70.85
2023-01-29T23:31:11.581Z,69.93
2023-01-29T23:33:38.792Z,70.52
2023-01-29T23:36:07.040Z,71.75
2023-01-29T23:38:34.459Z,71.52
2023-01-29T23:41:01.488Z,72.01
2023-01-29T23:43:28.903Z,72.34
2023-01-29T23:45:56.435Z,72.07
2023-01-29T23:48:24.129Z,73.46
2023-01-29T23:50:51.163Z,73.62
2023-01-29T23:53:18.550Z,73.36
2023-01-29T23:55:56.982Z,73.61
2023-01-29T23:58:24.183Z,73.95
